createdAt,value
2017-12-12T00:00:37.785Z,976.51
2017-12-12T00:01:47.925Z,976.46
2017-12-12T00:02:58.004Z,976.5
2017-12-12T00:04:08.181Z,976.58
2017-12-12T00:05:18.669Z,976.5
2017-12-12T00:06:28.753Z,976.43
2017-12-12T00:07:38.829Z,976.38
2017-12-12T00:08:48.894Z,976.36
2017-12-12T00:09:58.440Z,976.44
2017-12-12T00:11:08.526Z,976.43
2017-12-12T00:12:18.655Z,976.49
2017-12-12T00:13:28.463Z,976.48
2017-12-12T00:14:38.558Z,976.52
2017-12-12T00:15:48.628Z,976.57
2017-12-12T00:16:58.438Z,976.58
2017-12-12T00:18:08.245Z,976.69
2017-12-12T00:19:17.936Z,976.71
2017-12-12T00:20:28.046Z,976.78
2017-12-12T00:21:37.937Z,976.68
2017-12-12T00:22:47.732Z,976.63
2017-12-12T00:23:57.559Z,976.69
2017-12-12T00:25:07.687Z,976.72
2017-12-12T00:26:17.760Z,976.69
2017-12-12T00:27:27.564Z,976.67
2017-12-12T00:28:37.107Z,976.57
2017-12-12T00:29:46.911Z,976.72
2017-12-12T00:30:56.708Z,976.68
2017-12-12T00:32:06.874Z,976.65
2017-12-12T00:33:16.670Z,976.79
2017-12-12T00:34:26.581Z,976.7
2017-12-12T00:35:36.441Z,976.71
2017-12-12T00:36:46.524Z,976.6
2017-12-12T00:37:56.061Z,976.65
2017-12-12T00:39:06.724Z,976.59
2017-12-12T00:40:16.897Z,976.63
2017-12-12T00:41:27.778Z,976.63
2017-12-12T00:42:37.643Z,976.63
2017-12-12T00:43:47.846Z,976.68
2017-12-12T00:44:58.674Z,976.75
2017-12-12T00:46:08.498Z,976.75
2017-12-12T00:47:19.536Z,976.75
2017-12-12T00:48:29.405Z,976.84
2017-12-12T00:49:39.252Z,976.81
2017-12-12T00:50:50.172Z,976.74
2017-12-12T00:52:00.248Z,976.83
2017-12-12T00:53:10.396Z,976.83
2017-12-12T00:54:20.018Z,976.8
2017-12-12T00:55:29.847Z,976.8
2017-12-12T00:56:39.927Z,976.72
2017-12-12T00:57:49.994Z,976.69
2017-12-12T00:59:00.082Z,976.69
2017-12-12T01:00:09.679Z,976.64
2017-12-12T01:01:19.480Z,976.57
2017-12-12T01:02:29.300Z,976.49
2017-12-12T01:03:39.387Z,976.42
2017-12-12T01:04:49.467Z,976.41
2017-12-12T01:05:59.540Z,976.51
2017-12-12T01:07:09.397Z,976.5
2017-12-12T01:08:19.307Z,976.36
2017-12-12T01:09:29.389Z,976.39
2017-12-12T01:10:39.507Z,976.37
2017-12-12T01:11:49.621Z,976.31
2017-12-12T01:12:59.666Z,976.29
2017-12-12T01:14:09.181Z,976.26
2017-12-12T01:15:19.248Z,976.32
2017-12-12T01:16:29.050Z,976.44
2017-12-12T01:17:38.333Z,976.42
2017-12-12T01:18:48.146Z,976.44
2017-12-12T01:19:58.554Z,976.5
2017-12-12T01:21:08.360Z,976.35
2017-12-12T01:22:18.157Z,976.38
2017-12-12T01:23:28.028Z,976.42
2017-12-12T01:24:38.086Z,976.38
2017-12-12T01:25:48.134Z,976.31
2017-12-12T01:26:58.201Z,976.4
2017-12-12T01:28:08.271Z,976.4
2017-12-12T01:29:18.077Z,976.33
2017-12-12T01:30:28.130Z,976.43
2017-12-12T01:31:37.940Z,976.46
2017-12-12T01:32:48.008Z,976.33
2017-12-12T01:33:58.062Z,976.25
2017-12-12T01:35:08.123Z,976.42
2017-12-12T01:36:18.195Z,976.3
2017-12-12T01:37:28.265Z,976.34
2017-12-12T01:38:37.799Z,976.35
2017-12-12T01:39:47.857Z,976.41
2017-12-12T01:40:57.436Z,976.54
2017-12-12T01:42:07.234Z,976.6
2017-12-12T01:43:17.072Z,976.59
2017-12-12T01:44:26.616Z,976.53
2017-12-12T01:45:36.688Z,976.69
2017-12-12T01:46:46.214Z,976.76
2017-12-12T01:47:56.268Z,976.71
2017-12-12T01:49:06.338Z,976.72
2017-12-12T01:50:16.403Z,976.85
2017-12-12T01:51:26.455Z,976.56
2017-12-12T01:52:36.524Z,976.74
2017-12-12T01:53:46.324Z,976.76
2017-12-12T01:54:56.402Z,976.74
2017-12-12T01:56:06.454Z,976.76
2017-12-12T01:57:16.504Z,976.88
2017-12-12T01:58:26.547Z,976.89
2017-12-12T01:59:36.337Z,976.78
2017-12-12T02:00:46.400Z,976.73
2017-12-12T02:01:56.206Z,976.78
2017-12-12T02:03:06.000Z,976.77
2017-12-12T02:04:16.069Z,976.82
2017-12-12T02:05:26.126Z,976.88
2017-12-12T02:06:35.940Z,976.93
2017-12-12T02:07:46.000Z,976.94
2017-12-12T02:08:56.077Z,976.9
2017-12-12T02:10:05.880Z,977.05
2017-12-12T02:11:15.726Z,977.06
2017-12-12T02:12:27.104Z,976.96
2017-12-12T02:13:37.150Z,977.03
2017-12-12T02:14:47.390Z,977.1
2017-12-12T02:15:57.203Z,977.16
2017-12-12T02:17:07.269Z,977.2
2017-12-12T02:18:17.062Z,977.3
2017-12-12T02:19:27.123Z,977.4
2017-12-12T02:20:37.180Z,977.49
2017-12-12T02:21:47.248Z,977.54
2017-12-12T02:22:56.840Z,977.52
2017-12-12T02:24:06.624Z,977.62
2017-12-12T02:25:16.420Z,977.65
2017-12-12T02:26:26.220Z,977.72
2017-12-12T02:27:36.292Z,977.78
2017-12-12T02:28:46.408Z,977.68
2017-12-12T02:29:55.954Z,977.87
2017-12-12T02:31:05.742Z,977.95
2017-12-12T02:32:15.277Z,977.91
2017-12-12T02:33:25.142Z,978.04
2017-12-12T02:34:35.205Z,978.16
2017-12-12T02:35:45.011Z,978.14
2017-12-12T02:36:54.795Z,978.15
2017-12-12T02:38:04.597Z,978.14
2017-12-12T02:39:14.389Z,978.1
2017-12-12T02:40:24.463Z,978.11
2017-12-12T02:41:35.288Z,978.1
2017-12-12T02:42:45.356Z,978.29
2017-12-12T02:43:55.174Z,978.32
2017-12-12T02:45:05.288Z,978.29
2017-12-12T02:46:15.353Z,978.38
2017-12-12T02:47:25.152Z,978.4
2017-12-12T02:48:34.942Z,978.48
2017-12-12T02:49:45.005Z,978.62
2017-12-12T02:50:54.814Z,978.7
2017-12-12T02:52:04.890Z,978.69
2017-12-12T02:53:17.137Z,978.7
2017-12-12T02:54:27.208Z,978.67
2017-12-12T02:55:37.295Z,978.67
2017-12-12T02:56:47.341Z,978.65
2017-12-12T02:57:56.943Z,978.7
2017-12-12T02:59:06.742Z,978.7
2017-12-12T03:00:16.801Z,978.68
2017-12-12T03:01:26.856Z,978.68
2017-12-12T03:02:36.921Z,978.72
2017-12-12T03:34:08.576Z,979.68
2017-12-12T03:35:18.359Z,979.77
2017-12-12T03:36:28.499Z,979.77
2017-12-12T03:37:38.025Z,979.82
2017-12-12T03:38:48.078Z,979.86
2017-12-12T03:39:58.359Z,979.96
2017-12-12T03:41:08.435Z,980.02
2017-12-12T03:42:17.957Z,980.12
2017-12-12T03:43:27.484Z,980.21
2017-12-12T03:44:37.532Z,980.25
2017-12-12T03:45:47.254Z,980.14
2017-12-12T03:46:56.791Z,980.17
2017-12-12T03:48:06.846Z,980.24
2017-12-12T03:49:16.911Z,980.42
2017-12-12T03:50:26.968Z,980.45
2017-12-12T03:51:37.022Z,980.39
2017-12-12T03:52:47.064Z,980.42
2017-12-12T03:53:56.856Z,980.49
2017-12-12T03:55:06.903Z,980.55
2017-12-12T03:56:16.695Z,980.47
2017-12-12T03:57:26.488Z,980.56
2017-12-12T03:58:36.550Z,980.57
2017-12-12T03:59:46.659Z,980.62
2017-12-12T04:00:56.722Z,980.67
2017-12-12T04:02:06.774Z,980.68
2017-12-12T04:03:18.190Z,980.61
2017-12-12T04:04:28.256Z,980.58
2017-12-12T04:05:37.798Z,980.62
2017-12-12T04:06:47.617Z,980.74
2017-12-12T04:07:57.668Z,980.7
2017-12-12T04:09:07.728Z,980.67
2017-12-12T04:10:17.005Z,980.78
2017-12-12T04:11:26.851Z,980.94
2017-12-12T04:12:36.906Z,980.91
2017-12-12T04:13:46.951Z,980.91
2017-12-12T04:14:57.018Z,980.89
2017-12-12T04:16:07.074Z,980.91
2017-12-12T04:17:17.128Z,981.03
2017-12-12T04:18:26.932Z,981.03
2017-12-12T04:19:36.996Z,981
2017-12-12T04:20:46.796Z,981.08
2017-12-12T04:21:56.328Z,981.21
2017-12-12T04:23:06.123Z,981.4
2017-12-12T04:24:15.918Z,981.33
2017-12-12T04:25:25.972Z,981.25
2017-12-12T04:26:36.028Z,981.39
2017-12-12T04:27:45.819Z,981.49
2017-12-12T04:28:55.671Z,981.73
2017-12-12T04:30:05.739Z,981.76
2017-12-12T04:31:15.819Z,981.71
2017-12-12T04:32:25.622Z,981.69
2017-12-12T04:33:35.666Z,981.64
2017-12-12T04:34:45.207Z,981.56
2017-12-12T04:35:54.764Z,981.56
2017-12-12T04:37:04.814Z,981.63
2017-12-12T04:38:14.613Z,981.77
2017-12-12T04:39:24.419Z,981.75
2017-12-12T04:40:34.269Z,981.81
2017-12-12T04:41:44.079Z,981.88
2017-12-12T04:42:53.868Z,981.83
2017-12-12T04:44:03.975Z,981.87
2017-12-12T04:45:13.788Z,981.95
2017-12-12T04:46:23.619Z,981.83
2017-12-12T04:47:33.686Z,981.99
2017-12-12T04:48:43.736Z,982.1
2017-12-12T04:49:53.536Z,982.22
2017-12-12T04:51:03.353Z,982.36
2017-12-12T04:52:13.472Z,982.44
2017-12-12T04:53:23.550Z,982.34
2017-12-12T04:54:32.837Z,982.41
2017-12-12T04:55:42.908Z,982.4
2017-12-12T04:56:52.964Z,982.5
2017-12-12T04:58:02.831Z,982.54
2017-12-12T04:59:12.884Z,982.43
2017-12-12T05:00:22.674Z,982.66
2017-12-12T05:01:32.738Z,982.69
2017-12-12T05:02:42.813Z,982.73
2017-12-12T05:03:52.926Z,982.78
2017-12-12T05:05:03.001Z,982.77
2017-12-12T05:06:12.550Z,982.75
2017-12-12T05:07:22.065Z,982.83
2017-12-12T05:08:32.133Z,982.93
2017-12-12T05:09:41.926Z,983
2017-12-12T05:10:51.999Z,983
2017-12-12T05:12:01.812Z,983.17
2017-12-12T05:13:11.855Z,983.29
2017-12-12T05:14:21.901Z,983.2
2017-12-12T05:15:31.963Z,983.23
2017-12-12T05:16:41.759Z,983.38
2017-12-12T05:17:51.821Z,983.4
2017-12-12T05:19:01.627Z,983.31
2017-12-12T05:20:11.684Z,983.44
2017-12-12T05:21:21.210Z,983.55
2017-12-12T05:22:30.994Z,983.52
2017-12-12T05:23:40.820Z,983.51
2017-12-12T05:24:50.621Z,983.55
2017-12-12T05:26:00.675Z,983.53
2017-12-12T05:27:10.799Z,983.63
2017-12-12T05:28:20.863Z,983.67
2017-12-12T05:29:30.720Z,983.64
2017-12-12T05:30:40.514Z,983.74
2017-12-12T05:31:50.558Z,983.82
2017-12-12T05:33:00.637Z,983.8
2017-12-12T05:34:10.702Z,983.84
2017-12-12T05:35:20.763Z,983.9
2017-12-12T05:36:30.809Z,983.96
2017-12-12T05:37:40.870Z,983.86
2017-12-12T05:38:50.672Z,983.83
2017-12-12T05:40:00.749Z,983.92
2017-12-12T05:41:10.814Z,984.05
2017-12-12T05:42:20.872Z,984.06
2017-12-12T05:43:30.916Z,984.11
2017-12-12T05:44:40.711Z,984.06
2017-12-12T05:45:50.495Z,984.09
2017-12-12T05:47:00.549Z,984.2
2017-12-12T05:48:10.602Z,984.2
2017-12-12T05:49:20.388Z,984.16
2017-12-12T05:50:29.977Z,984.14
2017-12-12T05:51:39.832Z,984.17
2017-12-12T05:52:49.888Z,984.27
2017-12-12T05:53:59.682Z,984.33
2017-12-12T05:55:09.745Z,984.27
2017-12-12T05:56:19.791Z,984.29
2017-12-12T05:57:29.845Z,984.17
2017-12-12T05:58:39.897Z,984.27
2017-12-12T05:59:49.720Z,984.33
2017-12-12T06:00:59.767Z,984.31
2017-12-12T06:02:09.623Z,984.36
2017-12-12T06:03:19.686Z,984.46
2017-12-12T06:04:29.472Z,984.49
2017-12-12T06:05:39.277Z,984.55
2017-12-12T06:06:49.330Z,984.49
2017-12-12T06:07:58.863Z,984.46
2017-12-12T06:09:08.389Z,984.49
2017-12-12T06:10:18.458Z,984.56
2017-12-12T06:11:28.511Z,984.63
2017-12-12T06:12:38.595Z,984.68
2017-12-12T06:13:48.444Z,984.75
2017-12-12T06:14:58.233Z,984.72
2017-12-12T06:16:08.272Z,984.86
2017-12-12T06:17:18.071Z,984.87
2017-12-12T06:18:27.867Z,984.85
2017-12-12T06:19:37.956Z,984.95
2017-12-12T06:20:48.025Z,985.09
2017-12-12T06:21:57.834Z,985.14
2017-12-12T06:23:07.639Z,985.21
2017-12-12T06:24:17.421Z,985.33
2017-12-12T06:25:27.474Z,985.32
2017-12-12T06:26:37.297Z,985.35
2017-12-12T06:27:47.376Z,985.28
2017-12-12T06:28:57.433Z,985.28
2017-12-12T06:30:07.486Z,985.4
2017-12-12T06:31:17.538Z,985.45
2017-12-12T06:32:27.600Z,985.48
2017-12-12T06:33:37.660Z,985.57
2017-12-12T06:34:47.451Z,985.55
2017-12-12T06:35:57.524Z,985.63
2017-12-12T06:37:07.580Z,985.61
2017-12-12T06:38:17.382Z,985.61
2017-12-12T06:39:27.195Z,985.65
2017-12-12T06:40:36.739Z,985.61
2017-12-12T06:41:46.788Z,985.61
2017-12-12T06:42:56.908Z,985.63
2017-12-12T06:44:06.691Z,985.62
2017-12-12T06:45:16.486Z,985.73
2017-12-12T06:46:26.546Z,985.79
2017-12-12T06:47:36.352Z,985.79
2017-12-12T06:48:46.145Z,985.7
2017-12-12T06:49:56.197Z,985.73
2017-12-12T06:51:06.267Z,985.72
2017-12-12T06:52:16.344Z,985.78
2017-12-12T06:53:25.866Z,985.8
2017-12-12T06:54:35.903Z,985.82
2017-12-12T06:55:45.705Z,985.84
2017-12-12T06:56:55.513Z,985.9
2017-12-12T06:58:05.303Z,986.08
2017-12-12T06:59:14.834Z,986.09
2017-12-12T07:00:24.371Z,986.16
2017-12-12T07:01:34.434Z,986.18
2017-12-12T07:02:44.526Z,986.2
2017-12-12T07:03:54.592Z,986.14
2017-12-12T07:05:05.495Z,986.18
2017-12-12T07:06:15.317Z,986.17
2017-12-12T07:07:26.434Z,986.19
2017-12-12T07:08:36.233Z,986.3
2017-12-12T07:09:47.381Z,986.42
2017-12-12T07:10:57.433Z,986.41
2017-12-12T07:12:07.220Z,986.47
2017-12-12T07:13:16.760Z,986.52
2017-12-12T07:14:26.555Z,986.5
2017-12-12T07:15:36.373Z,986.57
2017-12-12T07:16:46.432Z,986.49
2017-12-12T07:17:56.487Z,986.58
2017-12-12T07:19:06.558Z,986.62
2017-12-12T07:20:16.627Z,986.62
2017-12-12T07:21:26.161Z,986.63
2017-12-12T07:22:36.219Z,986.59
2017-12-12T07:23:45.499Z,986.71
2017-12-12T07:24:55.579Z,986.64
2017-12-12T07:26:05.664Z,986.67
2017-12-12T07:27:15.452Z,986.67
2017-12-12T07:28:25.247Z,986.71
2017-12-12T07:29:35.051Z,986.7
2017-12-12T07:30:45.106Z,986.81
2017-12-12T07:31:54.915Z,986.84
2017-12-12T07:33:04.725Z,986.89
2017-12-12T07:34:14.537Z,986.94
2017-12-12T07:35:24.348Z,986.93
2017-12-12T07:36:34.575Z,986.91
2017-12-12T07:37:44.643Z,986.9
2017-12-12T07:38:54.440Z,986.94
2017-12-12T07:40:04.578Z,986.93
2017-12-12T07:41:14.416Z,986.93
2017-12-12T07:42:24.273Z,986.95
2017-12-12T07:43:34.321Z,987.03
2017-12-12T07:44:44.369Z,987.08
2017-12-12T07:45:54.220Z,987.08
2017-12-12T07:47:04.027Z,987.13
2017-12-12T07:48:14.073Z,987.19
2017-12-12T07:49:23.864Z,987.21
2017-12-12T07:50:33.926Z,987.17
2017-12-12T07:51:43.789Z,987.15
2017-12-12T07:52:53.580Z,987.19
2017-12-12T07:54:03.138Z,987.22
2017-12-12T07:55:12.934Z,987.25
2017-12-12T07:56:22.744Z,987.28
2017-12-12T07:57:32.817Z,987.24
2017-12-12T07:58:42.353Z,987.28
2017-12-12T07:59:52.159Z,987.27
2017-12-12T08:01:02.029Z,987.25
2017-12-12T08:02:11.848Z,987.3
2017-12-12T08:03:21.657Z,987.39
2017-12-12T08:04:31.460Z,987.54
2017-12-12T08:05:42.311Z,987.65
2017-12-12T08:06:52.386Z,987.64
2017-12-12T08:08:02.197Z,987.62
2017-12-12T08:09:12.063Z,987.62
2017-12-12T08:10:22.136Z,987.67
2017-12-12T08:11:31.935Z,987.71
2017-12-12T08:12:41.831Z,987.65
2017-12-12T08:13:51.370Z,987.62
2017-12-12T08:15:01.489Z,987.67
2017-12-12T08:16:11.069Z,987.71
2017-12-12T08:17:21.123Z,987.76
2017-12-12T08:18:30.909Z,987.81
2017-12-12T08:19:40.743Z,987.8
2017-12-12T08:20:50.899Z,987.74
2017-12-12T08:22:00.970Z,987.78
2017-12-12T08:23:11.586Z,987.77
2017-12-12T08:24:21.637Z,987.76
2017-12-12T08:25:31.696Z,987.77
2017-12-12T08:26:41.486Z,987.74
2017-12-12T08:27:51.538Z,987.72
2017-12-12T08:29:01.386Z,987.7
2017-12-12T08:30:11.186Z,987.68
2017-12-12T08:31:21.248Z,987.72
2017-12-12T08:32:31.311Z,987.71
2017-12-12T08:33:41.111Z,987.65
2017-12-12T08:34:51.206Z,987.66
2017-12-12T08:36:01.266Z,987.63
2017-12-12T08:37:11.350Z,987.73
2017-12-12T08:38:21.198Z,987.8
2017-12-12T08:39:31.280Z,987.81
2017-12-12T08:40:41.357Z,987.86
2017-12-12T08:41:51.174Z,987.86
2017-12-12T08:43:01.297Z,987.88
2017-12-12T08:44:11.423Z,987.84
2017-12-12T08:45:21.472Z,987.91
2017-12-12T08:46:31.958Z,987.93
2017-12-12T08:47:52.993Z,988.01
2017-12-12T08:49:06.935Z,987.99
2017-12-12T08:50:16.971Z,987.99
2017-12-12T08:51:26.773Z,987.97
2017-12-12T08:52:36.850Z,988.05
2017-12-12T08:53:46.899Z,988.17
2017-12-12T08:54:56.978Z,988.18
2017-12-12T08:56:06.795Z,988.18
2017-12-12T08:57:16.934Z,988.13
2017-12-12T08:58:26.933Z,988.12
2017-12-12T08:59:36.756Z,988.15
2017-12-12T09:00:46.843Z,988.26
2017-12-12T09:01:56.660Z,988.38
2017-12-12T09:03:06.212Z,988.42
2017-12-12T09:04:16.325Z,988.46
2017-12-12T09:05:26.162Z,988.46
2017-12-12T09:06:36.216Z,988.42
2017-12-12T09:07:46.025Z,988.46
2017-12-12T09:08:55.831Z,988.49
2017-12-12T09:10:05.903Z,988.53
2017-12-12T09:11:15.958Z,988.46
2017-12-12T09:12:26.038Z,988.39
2017-12-12T09:13:35.577Z,988.45
2017-12-12T09:14:45.366Z,988.44
2017-12-12T09:15:56.376Z,988.46
2017-12-12T09:17:06.457Z,988.53
2017-12-12T09:18:16.278Z,988.6
2017-12-12T09:19:26.376Z,988.64
2017-12-12T09:20:35.906Z,988.74
2017-12-12T09:21:46.474Z,988.78
2017-12-12T09:22:56.286Z,988.79
2017-12-12T09:24:06.332Z,988.76
2017-12-12T09:25:16.128Z,988.76
2017-12-12T09:26:26.199Z,988.68
2017-12-12T09:27:36.007Z,988.77
2017-12-12T09:28:46.514Z,988.83
2017-12-12T09:29:57.191Z,988.88
2017-12-12T09:31:07.032Z,988.86
2017-12-12T09:32:16.839Z,988.86
2017-12-12T09:33:26.896Z,988.86
2017-12-12T09:34:36.981Z,988.89
2017-12-12T09:35:47.049Z,988.9
2017-12-12T09:36:57.228Z,989
2017-12-12T09:38:07.533Z,989.06
2017-12-12T09:39:17.323Z,989.14
2017-12-12T09:40:27.421Z,989.19
2017-12-12T09:41:37.211Z,989.18
2017-12-12T09:42:47.259Z,989.13
2017-12-12T09:43:57.316Z,989.16
2017-12-12T09:45:07.453Z,989.22
2017-12-12T09:46:17.570Z,989.26
2017-12-12T09:47:27.644Z,989.24
2017-12-12T09:48:37.710Z,989.28
2017-12-12T09:49:47.507Z,989.28
2017-12-12T09:50:57.530Z,989.35
2017-12-12T09:52:07.736Z,989.32
2017-12-12T09:53:17.846Z,989.31
2017-12-12T09:54:27.946Z,989.36
2017-12-12T09:55:37.533Z,989.29
2017-12-12T09:56:47.638Z,989.37
2017-12-12T09:57:57.788Z,989.39
2017-12-12T09:59:07.905Z,989.43
2017-12-12T10:00:17.984Z,989.46
2017-12-12T10:01:27.804Z,989.5
2017-12-12T10:02:37.866Z,989.46
2017-12-12T10:03:47.729Z,989.47
2017-12-12T10:04:57.785Z,989.47
2017-12-12T10:06:07.860Z,989.5
2017-12-12T10:07:17.932Z,989.53
2017-12-12T10:08:28.064Z,989.52
2017-12-12T10:09:38.182Z,989.56
2017-12-12T10:10:48.008Z,989.57
2017-12-12T10:11:58.086Z,989.55
2017-12-12T10:13:07.897Z,989.56
2017-12-12T10:14:17.429Z,989.54
2017-12-12T10:15:27.272Z,989.57
2017-12-12T10:16:37.335Z,989.62
2017-12-12T10:17:47.150Z,989.62
2017-12-12T10:18:57.230Z,989.69
2017-12-12T10:20:07.339Z,989.67
2017-12-12T10:21:17.473Z,989.66
2017-12-12T10:22:27.282Z,989.67
2017-12-12T10:23:37.338Z,989.63
2017-12-12T10:24:47.423Z,989.64
2017-12-12T10:25:57.232Z,989.63
2017-12-12T10:27:07.296Z,989.59
2017-12-12T10:28:17.120Z,989.62
2017-12-12T10:29:27.198Z,989.57
2017-12-12T10:30:37.271Z,989.55
2017-12-12T10:31:47.079Z,989.58
2017-12-12T10:32:57.234Z,989.54
2017-12-12T10:34:07.879Z,989.49
2017-12-12T10:35:17.682Z,989.52
2017-12-12T10:36:27.748Z,989.6
2017-12-12T10:37:37.826Z,989.62
2017-12-12T10:38:47.915Z,989.58
2017-12-12T10:39:57.722Z,989.57
2017-12-12T10:41:07.574Z,989.62
2017-12-12T10:42:17.659Z,989.62
2017-12-12T10:43:27.752Z,989.61
2017-12-12T10:44:37.845Z,989.65
2017-12-12T10:45:47.902Z,989.62
2017-12-12T10:46:57.968Z,989.63
2017-12-12T10:48:07.523Z,989.64
2017-12-12T10:49:17.595Z,989.73
2017-12-12T10:50:27.403Z,989.77
2017-12-12T10:51:37.726Z,989.87
2017-12-12T10:52:47.530Z,990.01
2017-12-12T10:53:57.599Z,990
2017-12-12T10:55:07.692Z,989.96
2017-12-12T10:56:17.562Z,989.96
2017-12-12T10:57:27.363Z,989.91
2017-12-12T10:58:37.451Z,989.89
2017-12-12T10:59:47.510Z,989.8
2017-12-12T11:00:57.347Z,989.79
2017-12-12T11:02:07.413Z,989.91
2017-12-12T11:03:17.485Z,990.02
2017-12-12T11:04:27.298Z,990.08
2017-12-12T11:05:38.264Z,990.02
2017-12-12T11:06:48.078Z,990
2017-12-12T11:07:57.921Z,989.98
2017-12-12T11:09:08.019Z,989.99
2017-12-12T11:10:18.085Z,990.03
2017-12-12T11:11:28.161Z,989.99
2017-12-12T11:12:38.217Z,989.99
2017-12-12T11:13:48.288Z,990.08
2017-12-12T11:14:58.380Z,990.17
2017-12-12T11:16:08.476Z,990.2
2017-12-12T11:17:18.034Z,990.26
2017-12-12T11:18:28.125Z,990.27
2017-12-12T11:19:38.001Z,990.36
2017-12-12T11:20:48.073Z,990.52
2017-12-12T11:21:57.926Z,990.5
2017-12-12T11:23:07.748Z,990.51
2017-12-12T11:24:17.836Z,990.41
2017-12-12T11:25:27.648Z,990.41
2017-12-12T11:26:37.749Z,990.39
2017-12-12T11:27:47.553Z,990.36
2017-12-12T11:28:57.631Z,990.4
2017-12-12T11:30:07.697Z,990.43
2017-12-12T11:31:17.849Z,990.35
2017-12-12T11:32:27.155Z,990.4
2017-12-12T11:33:37.230Z,990.47
2017-12-12T11:34:47.039Z,990.43
2017-12-12T11:35:57.122Z,990.36
2017-12-12T11:37:07.218Z,990.34
2017-12-12T11:38:17.291Z,990.42
2017-12-12T11:39:27.368Z,990.39
2017-12-12T11:40:37.466Z,990.41
2017-12-12T11:41:47.299Z,990.51
2017-12-12T11:42:57.444Z,990.6
2017-12-12T11:44:07.239Z,990.62
2017-12-12T11:45:17.296Z,990.66
2017-12-12T11:46:27.366Z,990.81
2017-12-12T11:47:37.200Z,990.77
2017-12-12T11:48:47.016Z,990.87
2017-12-12T11:49:57.791Z,990.93
2017-12-12T11:51:08.135Z,990.9
2017-12-12T11:52:18.217Z,990.93
2017-12-12T11:53:28.042Z,990.72
2017-12-12T11:54:38.119Z,990.66
2017-12-12T11:55:47.935Z,990.61
2017-12-12T11:56:57.748Z,990.65
2017-12-12T11:58:07.545Z,990.64
2017-12-12T11:59:17.354Z,990.59
2017-12-12T12:00:27.479Z,990.59
2017-12-12T12:01:37.534Z,990.59
2017-12-12T12:02:47.607Z,990.65
2017-12-12T12:03:57.688Z,990.69
2017-12-12T12:05:07.504Z,990.76
2017-12-12T12:06:17.055Z,990.7
2017-12-12T12:07:26.331Z,990.69
2017-12-12T12:08:35.878Z,990.71
2017-12-12T12:09:45.678Z,990.78
2017-12-12T12:10:55.739Z,990.86
2017-12-12T12:12:05.532Z,990.9
2017-12-12T12:13:15.074Z,990.87
2017-12-12T12:14:25.161Z,990.93
2017-12-12T12:15:34.966Z,990.84
2017-12-12T12:16:44.788Z,990.8
2017-12-12T12:17:54.859Z,990.92
2017-12-12T12:19:04.700Z,990.91
2017-12-12T12:20:14.771Z,990.92
2017-12-12T12:21:24.853Z,991.01
2017-12-12T12:22:34.990Z,990.99
2017-12-12T12:23:45.077Z,990.95
2017-12-12T12:24:55.188Z,990.87
2017-12-12T12:26:05.261Z,990.88
2017-12-12T12:27:15.381Z,990.95
2017-12-12T12:28:25.505Z,990.9
2017-12-12T12:29:35.567Z,990.98
2017-12-12T12:30:45.669Z,990.97
2017-12-12T12:31:55.725Z,991
2017-12-12T12:33:05.813Z,991
2017-12-12T12:34:15.352Z,991.08
2017-12-12T12:35:25.154Z,991.07
2017-12-12T12:36:35.208Z,991.1
2017-12-12T12:37:45.253Z,991.12
2017-12-12T12:38:55.058Z,991.14
2017-12-12T12:40:04.863Z,991.19
2017-12-12T12:41:14.718Z,991.11
2017-12-12T12:42:24.785Z,991.13
2017-12-12T12:43:34.870Z,991.19
2017-12-12T12:44:44.422Z,991.13
2017-12-12T12:45:54.542Z,991.17
2017-12-12T12:47:04.627Z,991.25
2017-12-12T12:48:14.689Z,991.28
2017-12-12T12:49:24.750Z,991.31
2017-12-12T12:50:34.849Z,991.33
2017-12-12T12:51:45.886Z,991.33
2017-12-12T12:52:55.960Z,991.28
2017-12-12T12:54:05.774Z,991.33
2017-12-12T12:55:15.850Z,991.49
2017-12-12T12:56:25.916Z,991.5
2017-12-12T12:57:35.707Z,991.52
2017-12-12T12:58:44.975Z,991.48
2017-12-12T12:59:54.798Z,991.54
2017-12-12T13:01:04.866Z,991.5
2017-12-12T13:02:14.706Z,991.45
2017-12-12T13:03:23.774Z,991.52
2017-12-12T13:04:33.849Z,991.47
2017-12-12T13:05:43.900Z,991.45
2017-12-12T13:06:53.962Z,991.5
2017-12-12T13:08:04.023Z,991.44
2017-12-12T13:09:14.167Z,991.51
2017-12-12T13:10:24.251Z,991.47
2017-12-12T13:11:34.333Z,991.53
2017-12-12T13:12:44.416Z,991.49
2017-12-12T13:13:54.221Z,991.6
2017-12-12T13:15:04.296Z,991.59
2017-12-12T13:16:14.116Z,991.59
2017-12-12T13:17:24.189Z,991.6
2017-12-12T13:18:34.241Z,991.59
2017-12-12T13:19:43.770Z,991.61
2017-12-12T13:20:53.620Z,991.62
2017-12-12T13:22:03.397Z,991.61
2017-12-12T13:23:13.209Z,991.67
2017-12-12T13:24:23.279Z,991.74
2017-12-12T13:25:32.840Z,991.66
2017-12-12T13:26:42.674Z,991.68
2017-12-12T13:27:52.487Z,991.85
2017-12-12T13:29:02.568Z,991.84
2017-12-12T13:30:12.634Z,991.73
2017-12-12T13:31:22.713Z,991.8
2017-12-12T13:32:32.622Z,991.86
2017-12-12T13:33:42.682Z,991.82
2017-12-12T13:34:52.475Z,991.76
2017-12-12T13:36:02.548Z,991.89
2017-12-12T13:37:12.636Z,991.83
2017-12-12T13:38:22.706Z,991.91
2017-12-12T13:39:32.775Z,992.05
2017-12-12T13:40:42.836Z,992.09
2017-12-12T13:41:52.910Z,992.05
2017-12-12T13:43:02.714Z,992.21
2017-12-12T13:44:12.551Z,992.04
2017-12-12T13:45:22.626Z,992.15
2017-12-12T13:46:32.699Z,992.13
2017-12-12T13:47:41.969Z,992.25
2017-12-12T13:48:52.061Z,992.29
2017-12-12T13:50:03.231Z,992.21
2017-12-12T13:51:13.308Z,992.28
2017-12-12T13:52:23.391Z,992.29
2017-12-12T13:53:33.454Z,992.41
2017-12-12T13:54:43.274Z,992.51
2017-12-12T13:55:52.878Z,992.59
2017-12-12T13:57:03.533Z,992.6
2017-12-12T13:58:13.603Z,992.59
2017-12-12T13:59:23.712Z,992.66
2017-12-12T14:00:33.524Z,992.49
2017-12-12T14:01:43.647Z,992.57
2017-12-12T14:02:53.460Z,992.67
2017-12-12T14:04:03.293Z,992.66
2017-12-12T14:05:13.073Z,992.64
2017-12-12T14:06:22.609Z,992.64
2017-12-12T14:07:32.194Z,992.72
2017-12-12T14:08:42.319Z,992.66
2017-12-12T14:09:52.376Z,992.72
2017-12-12T14:11:02.179Z,992.75
2017-12-12T14:12:12.259Z,992.68
2017-12-12T14:13:22.476Z,992.76
2017-12-12T14:14:32.543Z,992.86
2017-12-12T14:15:42.621Z,992.81
2017-12-12T14:16:52.689Z,992.88
2017-12-12T14:18:02.230Z,992.8
2017-12-12T14:19:12.346Z,992.85
2017-12-12T14:20:22.211Z,992.73
2017-12-12T14:21:32.567Z,992.86
2017-12-12T14:22:42.354Z,992.89
2017-12-12T14:23:51.883Z,992.99
2017-12-12T14:25:01.458Z,993.02
2017-12-12T14:26:11.328Z,993.06
2017-12-12T14:27:20.882Z,993.07
2017-12-12T14:28:30.939Z,993.08
2017-12-12T14:29:41.024Z,993.05
2017-12-12T14:30:51.739Z,993.02
2017-12-12T14:32:02.946Z,992.96
2017-12-12T14:33:12.761Z,993.02
2017-12-12T14:34:22.625Z,993.15
2017-12-12T14:35:33.168Z,993.21
2017-12-12T14:36:43.043Z,993.23
2017-12-12T14:37:53.310Z,993.23
2017-12-12T14:39:03.377Z,993.28
2017-12-12T14:40:13.196Z,993.29
2017-12-12T14:41:23.252Z,993.31
2017-12-12T14:42:33.397Z,993.34
2017-12-12T14:43:43.479Z,993.35
2017-12-12T14:44:53.283Z,993.32
2017-12-12T14:46:02.832Z,993.35
2017-12-12T14:47:12.886Z,993.39
2017-12-12T14:48:22.956Z,993.4
2017-12-12T14:49:32.494Z,993.47
2017-12-12T14:50:42.653Z,993.5
2017-12-12T14:51:52.450Z,993.59
2017-12-12T14:53:02.517Z,993.59
2017-12-12T14:54:12.592Z,993.64
2017-12-12T14:55:22.656Z,993.64
2017-12-12T14:56:32.514Z,993.63
2017-12-12T14:57:42.701Z,993.66
2017-12-12T14:58:52.757Z,993.68
2017-12-12T15:00:02.932Z,993.81
2017-12-12T15:01:12.738Z,993.92
2017-12-12T15:02:22.796Z,993.97
2017-12-12T15:03:32.335Z,994.03
2017-12-12T15:04:42.135Z,994.05
2017-12-12T15:05:51.928Z,994.13
2017-12-12T15:07:02.032Z,994.19